createdAt,value
2022-09-15T00:00:30.754Z,9.365775
2022-09-15T00:01:30.842Z,9.365866
2022-09-15T00:02:30.866Z,9.365601
2022-09-15T00:03:30.716Z,9.365641
2022-09-15T00:04:30.695Z,9.365721
2022-09-15T00:05:30.693Z,9.365901
2022-09-15T00:06:30.691Z,9.365736
2022-09-15T00:07:30.690Z,9.365704
2022-09-15T00:08:30.686Z,9.365906
2022-09-15T00:09:30.641Z,9.365716
2022-09-15T00:10:30.635Z,9.365929
2022-09-15T00:11:30.657Z,9.365555
2022-09-15T00:12:30.630Z,9.365936
2022-09-15T00:13:30.596Z,9.366026
2022-09-15T00:14:31.349Z,9.366111
2022-09-15T00:15:30.584Z,9.365831
2022-09-15T00:16:30.602Z,9.365833
2022-09-15T00:17:30.592Z,9.366181
2022-09-15T00:18:30.548Z,9.366146
2022-09-15T00:19:30.531Z,9.366018
2022-09-15T00:20:30.578Z,9.366007
2022-09-15T00:21:30.531Z,9.365889
2022-09-15T00:22:30.552Z,9.365813
2022-09-15T00:23:31.186Z,9.365884
2022-09-15T00:24:30.472Z,9.365965
2022-09-15T00:25:30.459Z,9.366023
2022-09-15T00:26:30.455Z,9.366012
2022-09-15T00:27:30.431Z,9.366019
2022-09-15T00:28:30.456Z,9.366011
2022-09-15T00:29:30.426Z,9.366057
2022-09-15T00:30:30.510Z,9.366199
2022-09-15T00:31:30.391Z,9.365978
2022-09-15T00:32:30.374Z,9.365946
2022-09-15T00:33:30.378Z,9.365939
2022-09-15T00:34:30.361Z,9.365948
2022-09-15T00:35:30.341Z,9.366025
2022-09-15T00:36:30.325Z,9.366048
2022-09-15T00:37:30.318Z,9.366055
2022-09-15T00:38:30.340Z,9.366078
2022-09-15T00:39:30.294Z,9.366064
2022-09-15T00:40:30.329Z,9.366010
2022-09-15T00:41:30.262Z,9.366037
2022-09-15T00:42:30.242Z,9.366028
2022-09-15T00:43:30.295Z,9.366056
2022-09-15T00:44:30.228Z,9.366018
2022-09-15T00:45:30.259Z,9.365969
2022-09-15T00:46:30.217Z,9.366110
2022-09-15T00:47:30.195Z,9.366099
2022-09-15T00:48:30.224Z,9.366042
2022-09-15T00:49:30.174Z,9.365995
2022-09-15T00:50:30.151Z,9.366026
2022-09-15T00:51:30.142Z,9.366026
2022-09-15T00:52:30.147Z,9.366070
2022-09-15T00:53:30.122Z,9.366003
2022-09-15T00:54:30.127Z,9.365991
2022-09-15T00:55:30.115Z,9.365979
2022-09-15T00:56:30.365Z,9.365974
2022-09-15T00:57:30.134Z,9.366045
2022-09-15T00:58:30.127Z,9.366010
2022-09-15T00:59:30.113Z,9.365975
2022-09-15T01:00:30.066Z,9.366044
2022-09-15T01:01:30.078Z,9.366055
2022-09-15T01:02:30.055Z,9.366086
2022-09-15T01:03:30.014Z,9.366064
2022-09-15T01:04:30.062Z,9.366056
2022-09-15T01:05:30.001Z,9.366015
2022-09-15T01:06:29.979Z,9.365981
2022-09-15T01:07:29.972Z,9.366031
2022-09-15T01:08:29.956Z,9.366043
2022-09-15T01:09:29.967Z,9.366005
2022-09-15T01:10:29.917Z,9.365959
2022-09-15T01:11:29.915Z,9.365982
2022-09-15T01:12:29.896Z,9.366034
2022-09-15T01:13:29.895Z,9.366048
2022-09-15T01:14:29.885Z,9.366060
2022-09-15T01:15:29.881Z,9.366015
2022-09-15T01:16:29.946Z,9.365950
2022-09-15T01:17:29.861Z,9.365962
2022-09-15T01:18:29.908Z,9.365945
2022-09-15T01:19:29.827Z,9.365980
2022-09-15T01:20:29.825Z,9.365990
2022-09-15T01:21:29.792Z,9.365977
2022-09-15T01:22:29.787Z,9.365996
2022-09-15T01:23:29.767Z,9.365992
2022-09-15T01:24:30.764Z,9.366018
2022-09-15T01:25:29.770Z,9.365984
2022-09-15T01:26:29.736Z,9.365993
2022-09-15T01:27:42.273Z,9.365918
2022-09-15T01:28:31.727Z,9.366077
2022-09-15T01:29:29.770Z,9.366100
2022-09-15T01:30:29.707Z,9.366118
2022-09-15T01:31:29.704Z,9.365974
2022-09-15T01:32:29.674Z,9.366020
2022-09-15T01:33:29.665Z,9.366021
2022-09-15T01:34:29.641Z,9.366051
2022-09-15T01:35:29.676Z,9.365882
2022-09-15T01:36:29.618Z,9.365824
2022-09-15T01:37:29.605Z,9.365820
2022-09-15T01:38:29.587Z,9.365569
2022-09-15T01:39:29.589Z,9.365703
2022-09-15T01:40:29.722Z,9.365812
2022-09-15T01:41:29.575Z,9.365872
2022-09-15T01:42:29.539Z,9.366052
2022-09-15T01:43:29.542Z,9.365840
2022-09-15T01:44:29.529Z,9.365704
2022-09-15T01:45:29.591Z,9.365843
2022-09-15T01:46:29.519Z,9.365747
2022-09-15T01:47:29.488Z,9.365671
2022-09-15T01:48:29.498Z,9.365847
2022-09-15T01:49:29.464Z,9.365975
2022-09-15T01:50:29.472Z,9.365899
2022-09-15T01:51:29.443Z,9.365931
2022-09-15T01:52:29.422Z,9.365799
2022-09-15T01:53:29.458Z,9.365713
2022-09-15T01:54:29.393Z,9.365876
2022-09-15T01:55:29.410Z,9.365979
2022-09-15T01:56:29.381Z,9.365921
2022-09-15T01:57:29.365Z,9.366029
2022-09-15T01:58:29.354Z,9.366016
2022-09-15T01:59:29.345Z,9.365966
2022-09-15T02:00:29.354Z,9.366049
2022-09-15T02:01:29.423Z,9.366043
2022-09-15T02:02:29.400Z,9.366013
2022-09-15T02:03:29.313Z,9.365904
2022-09-15T02:04:29.305Z,9.366031
2022-09-15T02:05:29.308Z,9.365974
2022-09-15T02:06:29.276Z,9.365826
2022-09-15T02:07:29.276Z,9.365871
2022-09-15T02:08:29.249Z,9.366029
2022-09-15T02:09:29.237Z,9.366038
2022-09-15T02:10:29.263Z,9.366034
2022-09-15T02:11:29.221Z,9.366095
2022-09-15T02:12:29.213Z,9.366078
2022-09-15T02:13:29.459Z,9.366111
2022-09-15T02:14:29.189Z,9.366193
2022-09-15T02:15:29.195Z,9.366291
2022-09-15T02:16:29.209Z,9.366063
2022-09-15T02:17:29.147Z,9.366158
2022-09-15T02:18:29.134Z,9.365949
2022-09-15T02:19:29.152Z,9.365943
2022-09-15T02:20:29.148Z,9.365975
2022-09-15T02:21:29.107Z,9.366036
2022-09-15T02:22:29.317Z,9.365953
2022-09-15T02:23:29.090Z,9.365936
2022-09-15T02:24:29.053Z,9.366003
2022-09-15T02:25:29.113Z,9.365943
2022-09-15T02:26:29.038Z,9.365983
2022-09-15T02:27:29.044Z,9.366211
2022-09-15T02:28:29.036Z,9.366186
2022-09-15T02:29:29.016Z,9.366052
2022-09-15T02:30:29.004Z,9.366068
2022-09-15T02:31:29.073Z,9.366027
2022-09-15T02:32:28.995Z,9.366134
2022-09-15T02:33:28.949Z,9.366025
2022-09-15T02:34:28.964Z,9.365913
2022-09-15T02:35:28.954Z,9.365983
2022-09-15T02:36:28.953Z,9.366033
2022-09-15T02:37:28.928Z,9.366111
2022-09-15T02:38:28.913Z,9.365981
2022-09-15T02:39:28.896Z,9.365989
2022-09-15T02:40:28.915Z,9.365799
2022-09-15T02:41:28.962Z,9.365891
2022-09-15T02:42:28.903Z,9.365926
2022-09-15T02:43:28.865Z,9.365808
2022-09-15T02:44:28.826Z,9.365809
2022-09-15T02:45:28.882Z,9.365920
2022-09-15T02:46:28.857Z,9.365833
2022-09-15T02:47:28.833Z,9.365998
2022-09-15T02:48:28.797Z,9.366005
2022-09-15T02:49:28.789Z,9.366039
2022-09-15T02:50:28.768Z,9.366008
2022-09-15T02:51:28.825Z,9.365939
2022-09-15T02:52:28.755Z,9.365914
2022-09-15T02:53:28.739Z,9.366053
2022-09-15T02:54:28.734Z,9.366192
2022-09-15T02:55:28.708Z,9.366031
2022-09-15T02:56:28.712Z,9.366081
2022-09-15T02:57:28.719Z,9.366094
2022-09-15T02:58:28.671Z,9.366236
2022-09-15T02:59:28.664Z,9.366049
2022-09-15T03:00:28.647Z,9.366037
2022-09-15T03:01:28.697Z,9.365991
2022-09-15T03:02:28.696Z,9.366215
2022-09-15T03:03:28.622Z,9.365882
2022-09-15T03:04:28.595Z,9.366125
2022-09-15T03:05:28.589Z,9.365965
2022-09-15T03:06:28.590Z,9.365999
2022-09-15T03:07:28.620Z,9.366110
2022-09-15T03:08:29.157Z,9.366420
2022-09-15T03:09:28.579Z,9.366385
2022-09-15T03:10:28.524Z,9.366205
2022-09-15T03:11:28.525Z,9.366066
2022-09-15T03:12:28.528Z,9.366115
2022-09-15T03:13:28.509Z,9.366054
2022-09-15T03:14:28.507Z,9.366008
2022-09-15T03:15:28.514Z,9.366042
2022-09-15T03:16:28.614Z,9.365882
2022-09-15T03:17:29.004Z,9.365891
2022-09-15T03:18:28.439Z,9.366194
2022-09-15T03:19:28.416Z,9.366103
2022-09-15T03:20:28.410Z,9.366123
2022-09-15T03:21:28.397Z,9.366163
2022-09-15T03:22:28.419Z,9.366393
2022-09-15T03:23:28.387Z,9.366467
2022-09-15T03:24:28.343Z,9.366220
2022-09-15T03:25:28.357Z,9.365920
2022-09-15T03:26:28.329Z,9.365952
2022-09-15T03:27:28.341Z,9.366387
2022-09-15T03:28:28.332Z,9.366509
2022-09-15T03:29:28.311Z,9.366320
2022-09-15T03:30:28.293Z,9.366061
2022-09-15T03:31:28.346Z,9.366405
2022-09-15T03:32:28.304Z,9.366098
2022-09-15T03:33:28.297Z,9.366042
2022-09-15T03:34:28.241Z,9.366045
2022-09-15T03:35:28.255Z,9.365967
2022-09-15T03:36:28.227Z,9.366097
2022-09-15T03:37:28.216Z,9.366006
2022-09-15T03:38:28.243Z,9.366018
2022-09-15T03:39:28.184Z,9.366056
2022-09-15T03:40:28.248Z,9.366061
2022-09-15T03:41:28.188Z,9.366014
2022-09-15T03:42:28.145Z,9.365973
2022-09-15T03:43:28.179Z,9.366118
2022-09-15T03:44:28.137Z,9.366061
2022-09-15T03:45:28.189Z,9.366035
2022-09-15T03:46:28.109Z,9.366035
2022-09-15T03:47:28.103Z,9.365987
2022-09-15T03:48:28.109Z,9.366011
2022-09-15T03:49:28.076Z,9.366091
2022-09-15T03:50:28.057Z,9.366013
2022-09-15T03:51:28.041Z,9.366004
2022-09-15T03:52:28.047Z,9.366076
2022-09-15T03:53:28.051Z,9.366385
2022-09-15T03:54:28.015Z,9.366406
2022-09-15T03:55:28.000Z,9.365949
2022-09-15T03:56:27.996Z,9.365943
2022-09-15T03:57:27.999Z,9.365944
2022-09-15T03:58:30.795Z,9.365969
2022-09-15T03:59:27.964Z,9.365971
2022-09-15T04:00:27.980Z,9.366029
2022-09-15T04:01:28.028Z,9.365973
2022-09-15T04:02:27.990Z,9.366015
2022-09-15T04:03:27.947Z,9.365984
2022-09-15T04:04:27.920Z,9.365958
2022-09-15T04:05:27.878Z,9.365983
2022-09-15T04:06:27.877Z,9.365962
2022-09-15T04:07:27.851Z,9.365856
2022-09-15T04:08:27.843Z,9.365959
2022-09-15T04:09:27.829Z,9.365904
2022-09-15T04:10:27.821Z,9.365848
2022-09-15T04:11:27.797Z,9.365958
2022-09-15T04:12:27.784Z,9.365995
2022-09-15T04:13:28.775Z,9.365870
2022-09-15T04:14:27.781Z,9.365746
2022-09-15T04:15:27.797Z,9.365905
2022-09-15T04:16:27.779Z,9.365843
2022-09-15T04:17:27.716Z,9.365971
2022-09-15T04:18:27.718Z,9.365920
2022-09-15T04:19:27.727Z,9.365937
2022-09-15T04:20:27.692Z,9.365972
2022-09-15T04:21:27.685Z,9.365975
2022-09-15T04:22:27.670Z,9.366009
2022-09-15T04:23:27.660Z,9.365970
2022-09-15T04:24:27.656Z,9.365973
2022-09-15T04:25:27.656Z,9.365972
2022-09-15T04:26:27.636Z,9.365971
2022-09-15T04:27:27.634Z,9.365998
2022-09-15T04:28:27.598Z,9.365961
2022-09-15T04:29:27.623Z,9.365926
2022-09-15T04:30:27.631Z,9.365994
2022-09-15T04:31:27.592Z,9.366108
2022-09-15T04:32:27.553Z,9.366083
2022-09-15T04:33:27.542Z,9.366014
2022-09-15T04:34:27.596Z,9.365971
2022-09-15T04:35:27.529Z,9.365811
2022-09-15T04:36:27.528Z,9.365688
2022-09-15T04:37:27.532Z,9.365920
2022-09-15T04:38:27.465Z,9.365927
2022-09-15T04:39:27.458Z,9.365800
2022-09-15T04:40:27.550Z,9.365965
2022-09-15T04:41:27.434Z,9.365971
2022-09-15T04:42:27.440Z,9.365909
2022-09-15T04:43:27.413Z,9.365996
2022-09-15T04:44:27.405Z,9.365982
2022-09-15T04:45:27.418Z,9.365867
2022-09-15T04:46:27.417Z,9.365940
2022-09-15T04:47:27.416Z,9.365922
2022-09-15T04:48:27.405Z,9.366074
2022-09-15T04:49:27.344Z,9.365925
2022-09-15T04:50:27.396Z,9.366059
2022-09-15T04:51:27.340Z,9.365958
2022-09-15T04:52:27.348Z,9.366270
2022-09-15T04:53:27.305Z,9.366644
2022-09-15T04:54:27.318Z,9.366112
2022-09-15T04:55:27.337Z,9.366117
2022-09-15T04:56:27.267Z,9.366096
2022-09-15T04:57:27.283Z,9.366158
2022-09-15T04:58:27.270Z,9.365918
2022-09-15T04:59:27.267Z,9.365996
2022-09-15T05:00:27.239Z,9.366031
2022-09-15T05:01:27.270Z,9.366008
2022-09-15T05:02:27.266Z,9.365980
2022-09-15T05:03:27.213Z,9.366019
2022-09-15T05:04:27.186Z,9.365975
2022-09-15T05:05:27.161Z,9.366014
2022-09-15T05:06:27.190Z,9.365975
2022-09-15T05:07:27.240Z,9.365958
2022-09-15T05:08:27.129Z,9.365952
2022-09-15T05:09:27.145Z,9.365890
2022-09-15T05:10:27.117Z,9.366039
2022-09-15T05:11:27.122Z,9.365917
2022-09-15T05:12:27.113Z,9.365983
2022-09-15T05:13:27.080Z,9.366114
2022-09-15T05:14:27.086Z,9.366014
2022-09-15T05:15:27.075Z,9.365697
2022-09-15T05:16:27.240Z,9.366073
2022-09-15T05:17:27.027Z,9.366136
2022-09-15T05:18:27.036Z,9.366072
2022-09-15T05:19:27.007Z,9.365986
2022-09-15T05:20:27.002Z,9.365664
2022-09-15T05:21:27.049Z,9.366022
2022-09-15T05:22:26.973Z,9.365987
2022-09-15T05:23:26.965Z,9.366014
2022-09-15T05:24:26.962Z,9.365935
2022-09-15T05:25:26.927Z,9.365912
2022-09-15T05:26:27.973Z,9.365970
2022-09-15T05:27:26.897Z,9.365901
2022-09-15T05:28:26.890Z,9.365954
2022-09-15T05:29:26.889Z,9.366043
2022-09-15T05:30:44.440Z,9.366042
2022-09-15T05:31:29.013Z,9.366012
2022-09-15T05:32:26.861Z,9.366050
2022-09-15T05:33:26.836Z,9.366046
2022-09-15T05:34:26.839Z,9.365995
2022-09-15T05:35:26.821Z,9.365981
2022-09-15T05:36:26.797Z,9.366012
2022-09-15T05:37:26.812Z,9.365950
2022-09-15T05:38:26.813Z,9.365958
2022-09-15T05:39:26.763Z,9.365974
2022-09-15T05:40:26.795Z,9.365981
2022-09-15T05:41:26.791Z,9.366028
2022-09-15T05:42:26.759Z,9.366051
2022-09-15T05:43:26.722Z,9.366059
2022-09-15T05:44:26.715Z,9.365989
2022-09-15T05:45:26.688Z,9.365964
2022-09-15T05:46:26.797Z,9.365914
2022-09-15T05:47:26.726Z,9.365911
2022-09-15T05:48:26.657Z,9.366015
2022-09-15T05:49:26.647Z,9.366008
2022-09-15T05:50:26.686Z,9.366020
2022-09-15T05:51:26.627Z,9.365970
2022-09-15T05:52:26.669Z,9.366066
2022-09-15T05:53:26.625Z,9.366021
2022-09-15T05:54:26.581Z,9.366064
2022-09-15T05:55:26.567Z,9.366019
2022-09-15T05:56:26.568Z,9.366026
2022-09-15T05:57:26.555Z,9.366031
2022-09-15T05:58:26.579Z,9.366103
2022-09-15T05:59:26.537Z,9.366071
2022-09-15T06:00:26.518Z,9.366094
2022-09-15T06:01:26.583Z,9.365944
2022-09-15T06:02:26.995Z,9.366039
2022-09-15T06:03:30.747Z,9.365961
2022-09-15T06:04:26.487Z,9.366096
2022-09-15T06:05:26.459Z,9.366038
2022-09-15T06:06:26.476Z,9.366025
2022-09-15T06:07:26.441Z,9.365952
2022-09-15T06:08:26.444Z,9.365741
2022-09-15T06:09:26.432Z,9.365886
2022-09-15T06:10:26.413Z,9.366004
2022-09-15T06:11:26.759Z,9.365997
2022-09-15T06:12:26.383Z,9.366018
2022-09-15T06:13:26.408Z,9.366024
2022-09-15T06:14:26.376Z,9.366004
2022-09-15T06:15:26.350Z,9.365956
2022-09-15T06:16:26.389Z,9.365911
2022-09-15T06:17:26.323Z,9.365870
2022-09-15T06:18:26.344Z,9.365890
2022-09-15T06:19:26.543Z,9.365896
2022-09-15T06:20:26.320Z,9.365915
2022-09-15T06:21:26.544Z,9.365875
2022-09-15T06:22:26.962Z,9.365832
2022-09-15T07:58:59.230Z,9.366198
2022-09-15T07:59:59.208Z,9.366049
2022-09-15T08:00:59.198Z,9.366102
2022-09-15T08:01:59.223Z,9.366051
2022-09-15T08:02:59.249Z,9.365913
2022-09-15T08:03:59.156Z,9.366031
2022-09-15T08:04:59.139Z,9.366098
2022-09-15T08:05:59.130Z,9.365990
2022-09-15T08:06:59.120Z,9.365964
2022-09-15T08:07:59.149Z,9.365967
2022-09-15T08:09:00.722Z,9.365763
2022-09-15T08:10:00.123Z,9.365763
2022-09-15T08:10:59.093Z,9.365763
2022-09-15T08:11:59.065Z,9.365763
2022-09-15T08:12:59.056Z,9.365763
2022-09-15T08:13:59.056Z,9.365763
2022-09-15T08:14:59.031Z,9.365763
2022-09-15T08:15:59.050Z,9.365763
2022-09-15T08:16:59.015Z,9.365874
2022-09-15T08:17:59.001Z,9.365914
2022-09-15T08:18:59.005Z,9.365948
2022-09-15T08:19:59.154Z,9.365989
2022-09-15T08:20:58.984Z,9.365957
2022-09-15T08:21:58.974Z,9.365852
2022-09-15T08:22:58.955Z,9.365966
2022-09-15T08:23:58.956Z,9.365937
2022-09-15T08:24:58.932Z,9.366015
2022-09-15T08:25:58.919Z,9.365922
2022-09-15T08:26:58.907Z,9.365864
2022-09-15T08:27:58.888Z,9.365953
2022-09-15T08:28:59.005Z,9.365946
2022-09-15T08:29:59.323Z,9.365965
2022-09-15T08:30:58.918Z,9.366052
2022-09-15T08:31:58.844Z,9.365984
2022-09-15T08:32:58.836Z,9.365956
2022-09-15T08:33:58.886Z,9.366014
2022-09-15T08:34:58.819Z,9.366062
2022-09-15T08:35:58.809Z,9.365952
2022-09-15T08:36:58.811Z,9.366016
2022-09-15T08:37:58.786Z,9.365950
2022-09-15T08:38:58.777Z,9.365912
2022-09-15T08:39:58.840Z,9.366058
2022-09-15T08:40:58.750Z,9.365988
2022-09-15T08:41:58.744Z,9.365908
2022-09-15T08:42:58.748Z,9.365904
2022-09-15T08:43:58.731Z,9.365975
2022-09-15T08:44:58.768Z,9.365968
2022-09-15T08:45:58.811Z,9.365932
2022-09-15T08:46:58.689Z,9.365951
2022-09-15T08:47:58.689Z,9.365909
2022-09-15T08:49:02.787Z,9.365890
2022-09-15T08:49:58.688Z,9.365960
2022-09-15T08:50:58.645Z,9.365943
2022-09-15T08:51:58.640Z,9.365903
2022-09-15T08:52:58.640Z,9.366040
2022-09-15T08:53:58.617Z,9.366016
2022-09-15T08:54:58.645Z,9.366044
2022-09-15T08:55:58.595Z,9.366134
2022-09-15T08:56:58.594Z,9.365871
2022-09-15T08:57:58.581Z,9.366012
2022-09-15T08:58:58.567Z,9.366018
2022-09-15T08:59:58.564Z,9.366062
2022-09-15T09:00:58.550Z,9.366117
2022-09-15T09:01:58.581Z,9.366045
2022-09-15T09:02:58.576Z,9.366061
2022-09-15T09:03:58.518Z,9.365957
2022-09-15T09:04:58.491Z,9.365920
2022-09-15T09:05:58.518Z,9.365976
2022-09-15T09:06:58.480Z,9.366070
2022-09-15T09:07:58.460Z,9.366109
2022-09-15T09:08:58.463Z,9.366004
2022-09-15T09:09:58.439Z,9.365981
2022-09-15T09:10:58.455Z,9.365979
2022-09-15T09:11:58.433Z,9.366046
2022-09-15T09:12:58.405Z,9.366073
2022-09-15T09:48:46.591Z,9.363657
2022-09-15T09:49:46.672Z,9.364273
2022-09-15T09:50:46.564Z,9.364523
2022-09-15T09:51:46.549Z,9.364120
2022-09-15T09:52:46.570Z,9.364876
2022-09-15T09:53:46.528Z,9.366193
2022-09-15T09:54:46.555Z,9.366250
2022-09-15T09:55:46.536Z,9.366046
2022-09-15T09:56:46.503Z,9.366058
2022-09-15T09:57:46.660Z,9.365970
2022-09-15T09:59:21.788Z,9.366066
2022-09-15T09:59:46.556Z,9.366276
2022-09-15T10:00:46.702Z,9.366163
2022-09-15T10:01:46.532Z,9.366111
2022-09-15T10:02:46.514Z,9.366481
2022-09-15T10:03:46.421Z,9.366481
2022-09-15T10:04:46.551Z,9.367455
2022-09-15T10:05:46.415Z,9.366096
2022-09-15T10:06:46.404Z,9.366107
2022-09-15T10:07:46.396Z,9.366107
2022-09-15T10:08:46.401Z,9.366107
2022-09-15T10:09:46.412Z,9.366107
2022-09-15T10:10:46.366Z,9.366107
2022-09-15T10:11:46.356Z,9.366145
2022-09-15T10:12:46.366Z,9.366036
2022-09-15T10:13:46.355Z,9.365991
2022-09-15T10:14:46.315Z,9.366077
2022-09-15T10:15:46.340Z,9.366185
2022-09-15T10:16:46.362Z,9.366022
2022-09-15T10:17:46.301Z,9.366207
2022-09-15T10:18:47.598Z,9.366181
2022-09-15T10:19:46.254Z,9.366034
2022-09-15T10:20:46.289Z,9.365880
2022-09-15T10:21:46.246Z,9.365900
2022-09-15T10:22:46.258Z,9.366046
2022-09-15T10:23:46.284Z,9.366026
2022-09-15T10:24:46.228Z,9.365934
2022-09-15T10:26:01.597Z,9.366003
2022-09-15T10:26:54.688Z,9.365982
2022-09-15T10:27:46.199Z,9.365873
2022-09-15T10:28:46.242Z,9.365968
2022-09-15T10:29:46.157Z,9.365974
2022-09-15T10:30:46.155Z,9.365986
2022-09-15T10:31:46.185Z,9.366046
2022-09-15T10:32:46.148Z,9.366078
2022-09-15T10:33:46.094Z,9.365849
2022-09-15T10:34:46.120Z,9.366070
2022-09-15T10:35:46.105Z,9.366124
2022-09-15T10:36:46.085Z,9.366038
2022-09-15T10:37:46.090Z,9.365996
2022-09-15T10:38:46.062Z,9.366036
2022-09-15T10:39:46.079Z,9.366070
2022-09-15T10:40:46.032Z,9.365929
2022-09-15T10:41:46.027Z,9.365908
2022-09-15T10:42:46.034Z,9.365922
2022-09-15T10:43:46.000Z,9.365887
2022-09-15T10:44:46.010Z,9.365947
2022-09-15T10:45:46.037Z,9.365878
2022-09-15T10:46:45.977Z,9.366151
2022-09-15T10:47:45.995Z,9.366143
2022-09-15T10:48:45.946Z,9.365960
2022-09-15T10:49:45.991Z,9.365919
2022-09-15T10:50:45.929Z,9.366039
2022-09-15T10:51:46.148Z,9.365975
2022-09-15T10:52:45.925Z,9.365992
2022-09-15T10:53:45.940Z,9.366208
2022-09-15T10:54:45.935Z,9.366146
2022-09-15T10:55:52.755Z,9.366003
2022-09-15T10:56:46.880Z,9.366016
2022-09-15T10:57:45.871Z,9.366064
2022-09-15T10:58:46.104Z,9.366004
2022-09-15T10:59:45.836Z,9.366026
2022-09-15T11:00:46.850Z,9.366053
2022-09-15T11:01:45.822Z,9.365887
2022-09-15T11:02:45.792Z,9.365914
2022-09-15T11:03:45.784Z,9.366021
2022-09-15T11:04:45.773Z,9.365955
2022-09-15T11:05:45.776Z,9.366059
2022-09-15T11:06:45.903Z,9.365976
2022-09-15T11:07:45.736Z,9.366011
2022-09-15T11:08:45.734Z,9.365852
2022-09-15T11:09:45.727Z,9.366037
2022-09-15T11:10:45.746Z,9.366150
2022-09-15T11:11:45.715Z,9.366046
2022-09-15T11:12:45.695Z,9.366029
2022-09-15T11:13:45.667Z,9.366141
2022-09-15T11:14:45.672Z,9.365982
2022-09-15T11:15:45.679Z,9.366044
2022-09-15T11:16:45.957Z,9.366099
2022-09-15T11:17:46.643Z,9.366114
2022-09-15T11:18:45.619Z,9.366084
2022-09-15T11:19:45.607Z,9.365945
2022-09-15T11:20:45.608Z,9.366022
2022-09-15T11:21:45.597Z,9.366109
2022-09-15T11:22:49.464Z,9.365986
2022-09-15T11:23:45.552Z,9.366038
2022-09-15T11:24:45.548Z,9.366028
2022-09-15T11:25:45.928Z,9.366049
2022-09-15T11:26:45.554Z,9.366123
2022-09-15T11:27:45.535Z,9.366082
2022-09-15T11:28:45.520Z,9.366146
2022-09-15T11:29:45.485Z,9.366137
2022-09-15T11:30:47.747Z,9.366382
2022-09-15T11:31:46.585Z,9.366168
2022-09-15T11:32:45.456Z,9.366016
2022-09-15T11:33:45.435Z,9.365926
2022-09-15T11:34:45.443Z,9.365935
2022-09-15T11:35:45.410Z,9.365878
2022-09-15T11:36:45.435Z,9.365956
2022-09-15T11:37:45.441Z,9.365855
2022-09-15T11:38:45.408Z,9.365877
2022-09-15T11:39:45.451Z,9.365799
2022-09-15T11:40:45.379Z,9.365856
2022-09-15T11:41:45.405Z,9.365943
2022-09-15T11:42:45.364Z,9.366043
2022-09-15T11:43:45.348Z,9.365992
2022-09-15T11:44:45.328Z,9.365981
2022-09-15T11:45:45.306Z,9.365935
2022-09-15T11:46:45.359Z,9.365998
2022-09-15T11:47:45.294Z,9.365976
2022-09-15T11:48:45.364Z,9.366061
2022-09-15T11:49:45.267Z,9.366042
2022-09-15T11:50:45.274Z,9.366011
2022-09-15T11:51:45.273Z,9.365984
2022-09-15T11:52:45.255Z,9.366016
2022-09-15T11:53:45.223Z,9.365982
2022-09-15T11:54:45.218Z,9.365955
2022-09-15T11:55:45.209Z,9.366020
2022-09-15T11:56:45.408Z,9.366151
2022-09-15T11:57:45.211Z,9.366140
2022-09-15T11:58:45.153Z,9.366009
2022-09-15T11:59:45.148Z,9.365998
2022-09-15T12:00:45.135Z,9.366039
2022-09-15T12:01:45.159Z,9.365991
2022-09-15T12:02:45.221Z,9.366014
2022-09-15T12:03:45.133Z,9.365955
2022-09-15T12:04:45.086Z,9.366024
2022-09-15T12:05:45.100Z,9.365988
2022-09-15T12:06:46.126Z,9.366003
2022-09-15T12:07:46.070Z,9.365981
2022-09-15T12:08:45.153Z,9.365982
2022-09-15T12:09:45.030Z,9.366069
2022-09-15T12:10:45.045Z,9.366021
2022-09-15T12:11:45.617Z,9.366003
2022-09-15T12:12:45.050Z,9.366008
2022-09-15T12:13:45.016Z,9.365987
2022-09-15T12:14:44.998Z,9.366008
2022-09-15T12:15:45.249Z,9.366025
2022-09-15T12:16:44.992Z,9.366014
2022-09-15T12:17:44.996Z,9.365995
2022-09-15T12:18:46.977Z,9.365893
2022-09-15T12:19:44.958Z,9.365973
2022-09-15T12:20:45.505Z,9.365979
2022-09-15T12:21:44.928Z,9.365959
2022-09-15T12:22:44.895Z,9.365968
2022-09-15T12:23:44.997Z,9.365969
2022-09-15T12:24:44.908Z,9.365961
2022-09-15T12:25:44.895Z,9.366006
2022-09-15T12:26:44.859Z,9.365985
2022-09-15T12:27:44.858Z,9.366032
2022-09-15T12:28:44.892Z,9.365989
2022-09-15T12:29:44.853Z,9.365998
2022-09-15T12:30:44.871Z,9.366043
2022-09-15T12:31:44.815Z,9.366041
2022-09-15T12:32:44.787Z,9.366076
2022-09-15T12:33:44.853Z,9.366019
2022-09-15T12:34:44.773Z,9.366022
2022-09-15T12:35:44.765Z,9.365979
2022-09-15T12:36:44.793Z,9.366050
2022-09-15T12:37:44.774Z,9.365988
2022-09-15T12:38:44.825Z,9.366051
2022-09-15T12:39:44.874Z,9.366008
2022-09-15T12:40:44.702Z,9.365955
2022-09-15T12:41:44.709Z,9.366025
2022-09-15T12:42:44.709Z,9.365917
2022-09-15T12:43:44.671Z,9.366024
2022-09-15T12:44:44.735Z,9.365987
2022-09-15T12:45:44.641Z,9.366082
2022-09-15T12:46:44.718Z,9.366118
2022-09-15T12:47:44.660Z,9.366076
2022-09-15T12:48:47.339Z,9.365974
2022-09-15T12:49:44.631Z,9.365940
2022-09-15T12:50:44.615Z,9.365961
2022-09-15T12:51:44.583Z,9.366053
2022-09-15T12:52:44.592Z,9.366063
2022-09-15T12:53:46.251Z,9.365941
2022-09-15T12:54:44.614Z,9.365929
2022-09-15T12:55:44.546Z,9.365948
2022-09-15T12:56:44.541Z,9.365974
2022-09-15T12:57:44.575Z,9.366064
2022-09-15T12:58:44.516Z,9.366070
2022-09-15T12:59:44.531Z,9.365983
2022-09-15T13:01:16.614Z,9.366021
2022-09-15T13:01:46.595Z,9.366009
2022-09-15T13:02:44.522Z,9.365965
2022-09-15T13:03:44.470Z,9.365954
2022-09-15T13:04:44.473Z,9.365922
2022-09-15T13:05:44.463Z,9.365977
2022-09-15T13:06:44.424Z,9.366031
2022-09-15T13:07:44.432Z,9.366048
2022-09-15T13:08:44.408Z,9.366056
2022-09-15T13:09:44.427Z,9.366066
2022-09-15T13:10:44.410Z,9.366040
2022-09-15T13:12:44.373Z,9.366054
2022-09-15T13:13:44.431Z,9.365993
2022-09-15T13:14:44.368Z,9.365966
2022-09-15T13:15:45.151Z,9.366020
2022-09-15T13:16:44.334Z,9.366009
2022-09-15T13:17:44.325Z,9.366030
2022-09-15T13:18:44.294Z,9.366001
2022-09-15T13:19:44.311Z,9.365955
2022-09-15T13:20:44.307Z,9.365964
2022-09-15T13:21:44.279Z,9.366016
2022-09-15T13:22:44.272Z,9.366050
2022-09-15T13:23:44.236Z,9.365955
2022-09-15T13:24:44.308Z,9.366038
2022-09-15T13:25:44.225Z,9.366353
2022-09-15T13:26:44.218Z,9.366620
2022-09-15T13:27:44.220Z,9.366265
2022-09-15T13:28:44.200Z,9.366073
2022-09-15T13:29:44.211Z,9.366281
2022-09-15T13:30:44.286Z,9.365940
2022-09-15T13:31:44.158Z,9.366014
2022-09-15T13:32:44.182Z,9.366084
2022-09-15T13:35:04.414Z,9.366014
2022-09-15T13:35:46.162Z,9.366051
2022-09-15T13:38:45.092Z,9.366087
2022-09-15T13:39:44.113Z,9.366101
2022-09-15T13:40:44.062Z,9.366126
2022-09-15T13:41:44.063Z,9.366023
2022-09-15T13:42:44.043Z,9.366035
2022-09-15T13:43:44.043Z,9.366035
2022-09-15T13:44:44.065Z,9.366026
2022-09-15T13:45:44.029Z,9.366158
2022-09-15T13:46:44.038Z,9.366102
2022-09-15T13:47:44.002Z,9.365997
2022-09-15T13:48:43.992Z,9.366035
2022-09-15T13:49:43.980Z,9.366014
2022-09-15T13:50:43.984Z,9.365990
2022-09-15T13:51:43.975Z,9.366014
2022-09-15T13:52:43.930Z,9.366027
2022-09-15T13:53:43.928Z,9.366020
2022-09-15T13:54:43.949Z,9.366043
2022-09-15T13:55:43.937Z,9.366055
2022-09-15T13:56:43.910Z,9.365992
2022-09-15T13:59:04.322Z,9.365956
2022-09-15T13:59:45.865Z,9.365994